sensor_id;sensor_type;location;lat;lon;timestamp;temperature;humidity
50989;DHT22;37008;52.210;21.112;2023-11-21T00:02:22;0.10;99.90
50989;DHT22;37008;52.210;21.112;2023-11-21T00:04:48;0.10;99.90
50989;DHT22;37008;52.210;21.112;2023-11-21T00:07:14;0.10;99.90
50989;DHT22;37008;52.210;21.112;2023-11-21T00:09:41;0.10;99.90
50989;DHT22;37008;52.210;21.112;2023-11-21T00:12:07;0.20;99.90
50989;DHT22;37008;52.210;21.112;2023-11-21T00:14:36;0.00;99.90
50989;DHT22;37008;52.210;21.112;2023-11-21T00:17:02;0.00;99.90
50989;DHT22;37008;52.210;21.112;2023-11-21T00:19:28;0.10;99.90
50989;DHT22;37008;52.210;21.112;2023-11-21T00:21:53;0.00;99.90
50989;DHT22;37008;52.210;21.112;2023-11-21T00:24:19;0.00;99.90
50989;DHT22;37008;52.210;21.112;2023-11-21T00:26:45;0.00;99.90
50989;DHT22;37008;52.210;21.112;2023-11-21T00:29:10;0.00;99.90
50989;DHT22;37008;52.210;21.112;2023-11-21T00:31:36;0.00;99.90
50989;DHT22;37008;52.210;21.112;2023-11-21T00:34:05;0.00;99.90
50989;DHT22;37008;52.210;21.112;2023-11-21T00:36:31;0.00;99.90
50989;DHT22;37008;52.210;21.112;2023-11-21T00:38:57;0.00;99.90
50989;DHT22;37008;52.210;21.112;2023-11-21T00:41:23;-0.10;99.90
50989;DHT22;37008;52.210;21.112;2023-11-21T00:43:49;-0.10;99.90
50989;DHT22;37008;52.210;21.112;2023-11-21T00:46:14;0.00;99.90
50989;DHT22;37008;52.210;21.112;2023-11-21T00:48:40;-0.10;99.90
50989;DHT22;37008;52.210;21.112;2023-11-21T00:51:06;-0.10;99.90
50989;DHT22;37008;52.210;21.112;2023-11-21T00:53:32;-0.10;99.90
50989;DHT22;37008;52.210;21.112;2023-11-21T00:55:57;-0.20;99.90
50989;DHT22;37008;52.210;21.112;2023-11-21T00:58:24;-0.20;99.90
50989;DHT22;37008;52.210;21.112;2023-11-21T01:00:50;-0.20;99.90
50989;DHT22;37008;52.210;21.112;2023-11-21T01:03:15;-0.20;99.90
50989;DHT22;37008;52.210;21.112;2023-11-21T01:05:41;-0.30;99.90
50989;DHT22;37008;52.210;21.112;2023-11-21T01:08:07;-0.30;99.90
50989;DHT22;37008;52.210;21.112;2023-11-21T01:10:32;-0.30;99.90
50989;DHT22;37008;52.210;21.112;2023-11-21T01:13:00;-0.20;99.90
50989;DHT22;37008;52.210;21.112;2023-11-21T01:15:25;-0.30;99.90
50989;DHT22;37008;52.210;21.112;2023-11-21T01:17:54;-0.30;99.90
50989;DHT22;37008;52.210;21.112;2023-11-21T01:20:20;-0.30;99.90
50989;DHT22;37008;52.210;21.112;2023-11-21T01:22:45;-0.30;99.90
50989;DHT22;37008;52.210;21.112;2023-11-21T01:25:14;-0.30;99.90
50989;DHT22;37008;52.210;21.112;2023-11-21T01:27:39;-0.30;99.90
50989;DHT22;37008;52.210;21.112;2023-11-21T01:30:05;-0.30;99.90
50989;DHT22;37008;52.210;21.112;2023-11-21T01:32:33;-0.30;99.90
50989;DHT22;37008;52.210;21.112;2023-11-21T01:35:00;-0.30;99.90
50989;DHT22;37008;52.210;21.112;2023-11-21T01:37:25;0.10;99.90
50989;DHT22;37008;52.210;21.112;2023-11-21T01:39:54;-0.40;99.90
50989;DHT22;37008;52.210;21.112;2023-11-21T01:42:21;-0.30;99.90
50989;DHT22;37008;52.210;21.112;2023-11-21T01:44:46;-0.30;99.90
50989;DHT22;37008;52.210;21.112;2023-11-21T01:47:13;-0.30;99.90
50989;DHT22;37008;52.210;21.112;2023-11-21T01:49:39;-0.30;99.90
50989;DHT22;37008;52.210;21.112;2023-11-21T01:52:05;-0.40;99.90
50989;DHT22;37008;52.210;21.112;2023-11-21T01:54:31;-0.40;99.90
50989;DHT22;37008;52.210;21.112;2023-11-21T01:56:58;-0.40;99.90
50989;DHT22;37008;52.210;21.112;2023-11-21T01:59:33;-0.40;99.90
50989;DHT22;37008;52.210;21.112;2023-11-21T02:02:00;-0.40;99.90
50989;DHT22;37008;52.210;21.112;2023-11-21T02:04:25;-0.40;99.90
50989;DHT22;37008;52.210;21.112;2023-11-21T02:06:51;-0.40;99.90
50989;DHT22;37008;52.210;21.112;2023-11-21T02:09:17;-0.40;99.90
50989;DHT22;37008;52.210;21.112;2023-11-21T02:11:48;-0.40;99.90
50989;DHT22;37008;52.210;21.112;2023-11-21T02:14:14;-0.40;99.90
50989;DHT22;37008;52.210;21.112;2023-11-21T02:16:40;-0.40;99.90
50989;DHT22;37008;52.210;21.112;2023-11-21T02:19:07;-0.40;99.90
50989;DHT22;37008;52.210;21.112;2023-11-21T02:21:35;-0.50;99.90
50989;DHT22;37008;52.210;21.112;2023-11-21T02:24:01;-0.50;99.90
50989;DHT22;37008;52.210;21.112;2023-11-21T02:26:27;-0.50;99.90
50989;DHT22;37008;52.210;21.112;2023-11-21T02:28:53;-0.50;99.90
50989;DHT22;37008;52.210;21.112;2023-11-21T02:31:18;-0.50;99.90
50989;DHT22;37008;52.210;21.112;2023-11-21T02:33:44;-0.50;99.90
50989;DHT22;37008;52.210;21.112;2023-11-21T02:36:10;-0.50;99.90
50989;DHT22;37008;52.210;21.112;2023-11-21T02:38:35;-0.50;99.90
50989;DHT22;37008;52.210;21.112;2023-11-21T02:41:01;-0.40;99.90
50989;DHT22;37008;52.210;21.112;2023-11-21T02:43:27;-0.50;99.90
50989;DHT22;37008;52.210;21.112;2023-11-21T02:45:52;-0.50;99.90
50989;DHT22;37008;52.210;21.112;2023-11-21T02:48:18;-0.50;99.90
50989;DHT22;37008;52.210;21.112;2023-11-21T02:50:43;-0.50;99.90
50989;DHT22;37008;52.210;21.112;2023-11-21T02:53:09;-0.50;99.90
50989;DHT22;37008;52.210;21.112;2023-11-21T02:55:36;-0.50;99.90
50989;DHT22;37008;52.210;21.112;2023-11-21T02:58:02;-0.50;99.90
50989;DHT22;37008;52.210;21.112;2023-11-21T03:00:29;-0.50;99.90
50989;DHT22;37008;52.210;21.112;2023-11-21T03:02:56;-0.50;99.90
50989;DHT22;37008;52.210;21.112;2023-11-21T03:05:22;-0.50;99.90
50989;DHT22;37008;52.210;21.112;2023-11-21T03:07:47;-0.50;99.90
50989;DHT22;37008;52.210;21.112;2023-11-21T03:10:13;-0.50;99.90
50989;DHT22;37008;52.210;21.112;2023-11-21T03:12:39;-0.50;99.90
50989;DHT22;37008;52.210;21.112;2023-11-21T03:15:06;-0.60;99.90
50989;DHT22;37008;52.210;21.112;2023-11-21T03:17:33;-0.60;99.90
50989;DHT22;37008;52.210;21.112;2023-11-21T03:20:00;-0.60;99.90
50989;DHT22;37008;52.210;21.112;2023-11-21T03:22:25;-0.60;99.90
50989;DHT22;37008;52.210;21.112;2023-11-21T03:24:52;-0.20;99.90
50989;DHT22;37008;52.210;21.112;2023-11-21T03:27:18;-0.10;99.90
50989;DHT22;37008;52.210;21.112;2023-11-21T03:29:44;-0.60;99.90
50989;DHT22;37008;52.210;21.112;2023-11-21T03:32:10;-0.60;99.90
50989;DHT22;37008;52.210;21.112;2023-11-21T03:34:56;-0.60;99.90
50989;DHT22;37008;52.210;21.112;2023-11-21T03:37:22;-0.60;99.90
50989;DHT22;37008;52.210;21.112;2023-11-21T03:39:47;-0.70;99.90
50989;DHT22;37008;52.210;21.112;2023-11-21T03:42:13;-0.70;99.90
50989;DHT22;37008;52.210;21.112;2023-11-21T03:44:39;-0.60;99.90
50989;DHT22;37008;52.210;21.112;2023-11-21T03:47:05;-0.70;99.90
50989;DHT22;37008;52.210;21.112;2023-11-21T03:49:31;-0.70;99.90
50989;DHT22;37008;52.210;21.112;2023-11-21T03:51:56;-0.70;99.90
50989;DHT22;37008;52.210;21.112;2023-11-21T03:54:22;-0.70;99.90
50989;DHT22;37008;52.210;21.112;2023-11-21T03:56:48;-0.70;99.90
50989;DHT22;37008;52.210;21.112;2023-11-21T03:59:13;-0.80;99.90
50989;DHT22;37008;52.210;21.112;2023-11-21T04:01:39;-0.70;99.90
50989;DHT22;37008;52.210;21.112;2023-11-21T04:04:04;-0.30;99.90
50989;DHT22;37008;52.210;21.112;2023-11-21T04:06:33;-0.70;99.90
50989;DHT22;37008;52.210;21.112;2023-11-21T04:08:59;-0.70;99.90
50989;DHT22;37008;52.210;21.112;2023-11-21T04:11:24;-0.70;99.90
50989;DHT22;37008;52.210;21.112;2023-11-21T04:13:50;-0.70;99.90
50989;DHT22;37008;52.210;21.112;2023-11-21T04:16:16;-0.70;99.90
50989;DHT22;37008;52.210;21.112;2023-11-21T04:18:42;-0.70;99.90
50989;DHT22;37008;52.210;21.112;2023-11-21T04:21:08;-0.70;99.90
50989;DHT22;37008;52.210;21.112;2023-11-21T04:23:33;-0.70;99.90
50989;DHT22;37008;52.210;21.112;2023-11-21T04:26:00;-0.70;99.90
50989;DHT22;37008;52.210;21.112;2023-11-21T04:28:28;-0.70;99.90
50989;DHT22;37008;52.210;21.112;2023-11-21T04:30:53;-0.70;99.90
50989;DHT22;37008;52.210;21.112;2023-11-21T04:33:19;-0.80;99.90
50989;DHT22;37008;52.210;21.112;2023-11-21T04:35:45;-0.80;99.90
50989;DHT22;37008;52.210;21.112;2023-11-21T04:38:11;-0.80;99.90
50989;DHT22;37008;52.210;21.112;2023-11-21T04:40:37;-0.80;99.90
50989;DHT22;37008;52.210;21.112;2023-11-21T04:43:02;-0.80;99.90
50989;DHT22;37008;52.210;21.112;2023-11-21T04:45:29;-0.80;99.90
50989;DHT22;37008;52.210;21.112;2023-11-21T04:47:55;-0.80;99.90
50989;DHT22;37008;52.210;21.112;2023-11-21T04:50:21;-0.80;99.90
50989;DHT22;37008;52.210;21.112;2023-11-21T04:52:47;-0.90;99.90
50989;DHT22;37008;52.210;21.112;2023-11-21T04:55:12;-0.90;99.90
50989;DHT22;37008;52.210;21.112;2023-11-21T04:57:39;-1.00;99.90
50989;DHT22;37008;52.210;21.112;2023-11-21T05:00:10;-0.90;99.90
50989;DHT22;37008;52.210;21.112;2023-11-21T05:02:36;-0.90;99.90
50989;DHT22;37008;52.210;21.112;2023-11-21T05:05:03;-0.90;99.90
50989;DHT22;37008;52.210;21.112;2023-11-21T05:07:32;-0.90;99.90
50989;DHT22;37008;52.210;21.112;2023-11-21T05:09:57;-0.90;99.90
50989;DHT22;37008;52.210;21.112;2023-11-21T05:12:24;-0.90;99.90
50989;DHT22;37008;52.210;21.112;2023-11-21T05:14:50;-0.90;99.90
50989;DHT22;37008;52.210;21.112;2023-11-21T05:17:16;-0.90;99.90
50989;DHT22;37008;52.210;21.112;2023-11-21T05:19:42;-0.90;99.90
50989;DHT22;37008;52.210;21.112;2023-11-21T05:22:11;-1.00;99.90
50989;DHT22;37008;52.210;21.112;2023-11-21T05:24:37;-0.90;99.90
50989;DHT22;37008;52.210;21.112;2023-11-21T05:27:05;-0.90;99.90
50989;DHT22;37008;52.210;21.112;2023-11-21T05:29:30;-0.90;99.90
50989;DHT22;37008;52.210;21.112;2023-11-21T05:31:56;-0.90;99.90
50989;DHT22;37008;52.210;21.112;2023-11-21T05:34:22;-0.80;99.90
50989;DHT22;37008;52.210;21.112;2023-11-21T05:36:50;-0.80;99.90
50989;DHT22;37008;52.210;21.112;2023-11-21T05:39:15;-0.80;99.90
50989;DHT22;37008;52.210;21.112;2023-11-21T05:41:43;-0.80;99.90
50989;DHT22;37008;52.210;21.112;2023-11-21T05:44:08;-0.80;99.90
50989;DHT22;37008;52.210;21.112;2023-11-21T05:46:34;-0.80;99.90
50989;DHT22;37008;52.210;21.112;2023-11-21T05:49:00;-0.80;99.90
50989;DHT22;37008;52.210;21.112;2023-11-21T05:51:26;-0.80;99.90
50989;DHT22;37008;52.210;21.112;2023-11-21T05:53:51;-0.80;99.90
50989;DHT22;37008;52.210;21.112;2023-11-21T05:56:17;-0.70;99.90
50989;DHT22;37008;52.210;21.112;2023-11-21T05:58:43;-0.80;99.90
50989;DHT22;37008;52.210;21.112;2023-11-21T06:01:09;-0.80;99.90
50989;DHT22;37008;52.210;21.112;2023-11-21T06:03:38;-0.80;99.90
50989;DHT22;37008;52.210;21.112;2023-11-21T06:06:04;-0.70;99.90
50989;DHT22;37008;52.210;21.112;2023-11-21T06:08:30;-0.70;99.90
50989;DHT22;37008;52.210;21.112;2023-11-21T06:10:55;-0.80;99.90
50989;DHT22;37008;52.210;21.112;2023-11-21T06:13:21;-0.70;99.90
50989;DHT22;37008;52.210;21.112;2023-11-21T06:15:53;-0.70;99.90
50989;DHT22;37008;52.210;21.112;2023-11-21T06:18:19;-0.70;99.90
50989;DHT22;37008;52.210;21.112;2023-11-21T06:20:45;-0.70;99.90
50989;DHT22;37008;52.210;21.112;2023-11-21T06:23:11;-0.80;99.90
50989;DHT22;37008;52.210;21.112;2023-11-21T06:25:37;-0.80;99.90
50989;DHT22;37008;52.210;21.112;2023-11-21T06:28:03;-0.80;99.90
50989;DHT22;37008;52.210;21.112;2023-11-21T06:30:32;-0.80;99.90
50989;DHT22;37008;52.210;21.112;2023-11-21T06:33:00;-0.80;99.90
50989;DHT22;37008;52.210;21.112;2023-11-21T06:35:26;-0.70;99.90
50989;DHT22;37008;52.210;21.112;2023-11-21T06:37:55;-0.70;99.90
50989;DHT22;37008;52.210;21.112;2023-11-21T06:40:21;-0.70;99.90
50989;DHT22;37008;52.210;21.112;2023-11-21T06:42:47;-0.70;99.90
50989;DHT22;37008;52.210;21.112;2023-11-21T06:45:13;-0.70;99.90
50989;DHT22;37008;52.210;21.112;2023-11-21T06:47:39;-0.70;99.90
50989;DHT22;37008;52.210;21.112;2023-11-21T06:50:05;-0.70;99.90
50989;DHT22;37008;52.210;21.112;2023-11-21T06:52:32;-0.70;99.90
50989;DHT22;37008;52.210;21.112;2023-11-21T06:54:58;-0.70;99.90
50989;DHT22;37008;52.210;21.112;2023-11-21T06:57:24;-0.70;99.90
50989;DHT22;37008;52.210;21.112;2023-11-21T06:59:49;-0.70;99.90
50989;DHT22;37008;52.210;21.112;2023-11-21T07:02:18;-0.70;99.90
50989;DHT22;37008;52.210;21.112;2023-11-21T07:04:46;-0.70;99.90
50989;DHT22;37008;52.210;21.112;2023-11-21T07:07:12;-0.70;99.90
50989;DHT22;37008;52.210;21.112;2023-11-21T07:09:38;-0.70;99.90
50989;DHT22;37008;52.210;21.112;2023-11-21T07:12:04;-0.80;99.90
50989;DHT22;37008;52.210;21.112;2023-11-21T07:14:33;-0.70;99.90
50989;DHT22;37008;52.210;21.112;2023-11-21T07:16:59;-0.70;99.90
50989;DHT22;37008;52.210;21.112;2023-11-21T07:19:25;-0.80;99.90
50989;DHT22;37008;52.210;21.112;2023-11-21T07:21:50;-0.80;99.90
50989;DHT22;37008;52.210;21.112;2023-11-21T07:24:16;-0.70;99.90
50989;DHT22;37008;52.210;21.112;2023-11-21T07:26:42;-0.70;99.90
50989;DHT22;37008;52.210;21.112;2023-11-21T07:29:08;-0.70;99.90
50989;DHT22;37008;52.210;21.112;2023-11-21T07:31:34;-0.70;99.90
50989;DHT22;37008;52.210;21.112;2023-11-21T07:34:00;-0.60;99.90
50989;DHT22;37008;52.210;21.112;2023-11-21T07:36:26;-0.60;99.90
50989;DHT22;37008;52.210;21.112;2023-11-21T07:38:52;-0.60;99.90
50989;DHT22;37008;52.210;21.112;2023-11-21T07:41:18;-0.70;99.90
50989;DHT22;37008;52.210;21.112;2023-11-21T07:43:45;-0.70;99.90
50989;DHT22;37008;52.210;21.112;2023-11-21T07:46:11;-0.70;99.90
50989;DHT22;37008;52.210;21.112;2023-11-21T07:48:41;-0.80;99.90
50989;DHT22;37008;52.210;21.112;2023-11-21T07:51:11;-0.70;99.90
50989;DHT22;37008;52.210;21.112;2023-11-21T07:53:38;-0.80;99.90
50989;DHT22;37008;52.210;21.112;2023-11-21T07:56:06;-0.70;99.90
50989;DHT22;37008;52.210;21.112;2023-11-21T07:58:33;-0.80;99.90
50989;DHT22;37008;52.210;21.112;2023-11-21T08:01:00;-0.70;99.90
50989;DHT22;37008;52.210;21.112;2023-11-21T08:03:26;-0.70;99.90
50989;DHT22;37008;52.210;21.112;2023-11-21T08:06:00;-0.70;99.90
50989;DHT22;37008;52.210;21.112;2023-11-21T08:08:28;-0.70;99.90
50989;DHT22;37008;52.210;21.112;2023-11-21T08:10:54;-0.60;99.90
50989;DHT22;37008;52.210;21.112;2023-11-21T08:13:27;-0.60;99.90
50989;DHT22;37008;52.210;21.112;2023-11-21T08:15:56;-0.60;99.90
50989;DHT22;37008;52.210;21.112;2023-11-21T08:18:23;-0.60;99.90
50989;DHT22;37008;52.210;21.112;2023-11-21T08:20:50;-0.60;99.90
50989;DHT22;37008;52.210;21.112;2023-11-21T08:23:16;-0.60;99.90
50989;DHT22;37008;52.210;21.112;2023-11-21T08:25:43;-0.50;99.90
50989;DHT22;37008;52.210;21.112;2023-11-21T08:28:09;-0.60;99.90
50989;DHT22;37008;52.210;21.112;2023-11-21T08:30:35;-0.50;99.90
50989;DHT22;37008;52.210;21.112;2023-11-21T08:33:01;0.60;99.90
50989;DHT22;37008;52.210;21.112;2023-11-21T08:35:28;-0.10;99.90
50989;DHT22;37008;52.210;21.112;2023-11-21T08:37:54;-0.50;99.90
50989;DHT22;37008;52.210;21.112;2023-11-21T08:40:21;-0.40;99.90
50989;DHT22;37008;52.210;21.112;2023-11-21T08:42:47;-0.20;99.90
50989;DHT22;37008;52.210;21.112;2023-11-21T08:45:17;-0.40;99.90
50989;DHT22;37008;52.210;21.112;2023-11-21T08:47:43;-0.40;99.90
50989;DHT22;37008;52.210;21.112;2023-11-21T08:50:12;-0.40;99.90
50989;DHT22;37008;52.210;21.112;2023-11-21T08:53:21;-0.40;99.90
50989;DHT22;37008;52.210;21.112;2023-11-21T08:55:45;-0.40;99.90
50989;DHT22;37008;52.210;21.112;2023-11-21T08:58:11;-0.30;99.90
50989;DHT22;37008;52.210;21.112;2023-11-21T09:03:49;-0.40;99.90
50989;DHT22;37008;52.210;21.112;2023-11-21T09:06:15;-0.30;99.90
50989;DHT22;37008;52.210;21.112;2023-11-21T09:08:56;-0.50;99.90
50989;DHT22;37008;52.210;21.112;2023-11-21T09:11:22;-0.20;99.90
50989;DHT22;37008;52.210;21.112;2023-11-21T09:13:50;-1.10;99.90
50989;DHT22;37008;52.210;21.112;2023-11-21T09:16:16;-0.40;99.90
50989;DHT22;37008;52.210;21.112;2023-11-21T09:18:42;-0.30;99.90
50989;DHT22;37008;52.210;21.112;2023-11-21T09:21:11;0.20;99.90
50989;DHT22;37008;52.210;21.112;2023-11-21T09:23:45;-0.30;99.90
50989;DHT22;37008;52.210;21.112;2023-11-21T09:26:13;-0.30;99.90
50989;DHT22;37008;52.210;21.112;2023-11-21T09:28:41;-0.20;99.90
50989;DHT22;37008;52.210;21.112;2023-11-21T09:31:11;-0.20;99.90
50989;DHT22;37008;52.210;21.112;2023-11-21T09:33:39;-0.20;99.90
50989;DHT22;37008;52.210;21.112;2023-11-21T09:36:05;-0.20;99.90
50989;DHT22;37008;52.210;21.112;2023-11-21T09:38:31;-0.20;99.90
50989;DHT22;37008;52.210;21.112;2023-11-21T09:40:57;0.40;99.90
50989;DHT22;37008;52.210;21.112;2023-11-21T09:43:24;-0.10;99.90
50989;DHT22;37008;52.210;21.112;2023-11-21T09:46:00;0.00;99.90
50989;DHT22;37008;52.210;21.112;2023-11-21T09:48:27;0.50;99.90
50989;DHT22;37008;52.210;21.112;2023-11-21T09:50:55;0.10;99.90
50989;DHT22;37008;52.210;21.112;2023-11-21T09:53:21;0.10;99.90
50989;DHT22;37008;52.210;21.112;2023-11-21T09:55:59;0.10;99.90
50989;DHT22;37008;52.210;21.112;2023-11-21T09:58:31;0.10;99.90
50989;DHT22;37008;52.210;21.112;2023-11-21T10:01:23;0.20;99.90
50989;DHT22;37008;52.210;21.112;2023-11-21T10:03:50;0.20;99.90
50989;DHT22;37008;52.210;21.112;2023-11-21T10:06:18;0.20;99.90
50989;DHT22;37008;52.210;21.112;2023-11-21T10:08:44;0.10;99.90
50989;DHT22;37008;52.210;21.112;2023-11-21T10:11:11;0.40;99.90
50989;DHT22;37008;52.210;21.112;2023-11-21T10:13:37;0.20;99.90
50989;DHT22;37008;52.210;21.112;2023-11-21T10:16:05;0.50;99.90
50989;DHT22;37008;52.210;21.112;2023-11-21T10:18:33;0.20;99.90
50989;DHT22;37008;52.210;21.112;2023-11-21T10:21:00;0.30;99.90
50989;DHT22;37008;52.210;21.112;2023-11-21T10:23:26;0.20;99.90
50989;DHT22;37008;52.210;21.112;2023-11-21T10:25:52;0.20;99.90
50989;DHT22;37008;52.210;21.112;2023-11-21T10:28:18;0.70;99.90
50989;DHT22;37008;52.210;21.112;2023-11-21T10:30:45;0.20;99.90
50989;DHT22;37008;52.210;21.112;2023-11-21T10:33:10;0.30;99.90
50989;DHT22;37008;52.210;21.112;2023-11-21T10:35:43;0.60;99.90
50989;DHT22;37008;52.210;21.112;2023-11-21T10:38:15;0.60;99.90
50989;DHT22;37008;52.210;21.112;2023-11-21T10:40:41;0.30;99.90
50989;DHT22;37008;52.210;21.112;2023-11-21T10:43:08;0.30;99.90
50989;DHT22;37008;52.210;21.112;2023-11-21T10:45:36;0.30;99.90
50989;DHT22;37008;52.210;21.112;2023-11-21T10:48:07;0.30;99.90
50989;DHT22;37008;52.210;21.112;2023-11-21T10:50:37;0.70;99.90
50989;DHT22;37008;52.210;21.112;2023-11-21T10:53:04;0.30;99.90
50989;DHT22;37008;52.210;21.112;2023-11-21T10:55:30;0.30;99.90
50989;DHT22;37008;52.210;21.112;2023-11-21T10:57:59;0.70;99.90
50989;DHT22;37008;52.210;21.112;2023-11-21T11:00:26;0.30;99.90
50989;DHT22;37008;52.210;21.112;2023-11-21T11:02:53;1.00;99.90
50989;DHT22;37008;52.210;21.112;2023-11-21T11:05:27;0.30;99.90
50989;DHT22;37008;52.210;21.112;2023-11-21T11:08:08;0.20;99.90
50989;DHT22;37008;52.210;21.112;2023-11-21T11:10:37;0.10;99.90
50989;DHT22;37008;52.210;21.112;2023-11-21T11:13:04;0.20;99.90
50989;DHT22;37008;52.210;21.112;2023-11-21T11:15:35;0.10;99.90
50989;DHT22;37008;52.210;21.112;2023-11-21T11:18:03;0.20;99.90
50989;DHT22;37008;52.210;21.112;2023-11-21T11:20:51;0.20;99.90
50989;DHT22;37008;52.210;21.112;2023-11-21T11:23:53;0.10;99.90
50989;DHT22;37008;52.210;21.112;2023-11-21T11:35:26;1.00;99.90
50989;DHT22;37008;52.210;21.112;2023-11-21T11:37:56;0.50;99.90
50989;DHT22;37008;52.210;21.112;2023-11-21T11:40:22;0.00;99.90
50989;DHT22;37008;52.210;21.112;2023-11-21T11:42:58;0.00;99.90
50989;DHT22;37008;52.210;21.112;2023-11-21T11:45:33;0.50;99.90
50989;DHT22;37008;52.210;21.112;2023-11-21T11:48:00;0.00;99.90
50989;DHT22;37008;52.210;21.112;2023-11-21T11:50:26;0.00;99.90
50989;DHT22;37008;52.210;21.112;2023-11-21T11:52:53;0.00;99.90
50989;DHT22;37008;52.210;21.112;2023-11-21T11:58:37;0.00;99.90
50989;DHT22;37008;52.210;21.112;2023-11-21T12:01:06;0.30;99.90
50989;DHT22;37008;52.210;21.112;2023-11-21T12:03:32;0.00;99.90
50989;DHT22;37008;52.210;21.112;2023-11-21T12:05:58;0.00;99.90
50989;DHT22;37008;52.210;21.112;2023-11-21T12:08:28;0.00;99.90
50989;DHT22;37008;52.210;21.112;2023-11-21T12:10:57;0.00;99.90
50989;DHT22;37008;52.210;21.112;2023-11-21T12:13:23;-0.10;99.90
50989;DHT22;37008;52.210;21.112;2023-11-21T12:15:49;-0.10;99.90
50989;DHT22;37008;52.210;21.112;2023-11-21T12:18:24;-0.10;99.90
50989;DHT22;37008;52.210;21.112;2023-11-21T12:20:53;-0.20;99.90
50989;DHT22;37008;52.210;21.112;2023-11-21T12:23:20;-0.20;99.90
50989;DHT22;37008;52.210;21.112;2023-11-21T12:25:46;-0.30;99.90
50989;DHT22;37008;52.210;21.112;2023-11-21T12:28:12;-0.30;99.90
50989;DHT22;37008;52.210;21.112;2023-11-21T12:30:37;-0.30;99.90
50989;DHT22;37008;52.210;21.112;2023-11-21T12:33:06;-0.40;99.90
50989;DHT22;37008;52.210;21.112;2023-11-21T12:35:34;-0.30;99.90
50989;DHT22;37008;52.210;21.112;2023-11-21T12:38:01;-0.30;99.90
50989;DHT22;37008;52.210;21.112;2023-11-21T12:40:31;-0.40;99.90
50989;DHT22;37008;52.210;21.112;2023-11-21T12:42:57;-0.30;99.90
50989;DHT22;37008;52.210;21.112;2023-11-21T12:45:25;-0.30;99.90
50989;DHT22;37008;52.210;21.112;2023-11-21T12:50:26;-0.20;99.90
50989;DHT22;37008;52.210;21.112;2023-11-21T12:53:01;-0.30;99.90
50989;DHT22;37008;52.210;21.112;2023-11-21T12:55:33;-0.30;99.90
50989;DHT22;37008;52.210;21.112;2023-11-21T12:58:03;-0.30;99.90
50989;DHT22;37008;52.210;21.112;2023-11-21T13:00:39;-0.40;99.90
50989;DHT22;37008;52.210;21.112;2023-11-21T13:03:08;-0.40;99.90
50989;DHT22;37008;52.210;21.112;2023-11-21T13:05:36;-0.50;99.90
50989;DHT22;37008;52.210;21.112;2023-11-21T13:08:06;-0.50;99.90
50989;DHT22;37008;52.210;21.112;2023-11-21T13:10:35;-0.40;99.90
50989;DHT22;37008;52.210;21.112;2023-11-21T13:13:12;-0.40;99.90
50989;DHT22;37008;52.210;21.112;2023-11-21T13:15:48;-0.40;99.90
50989;DHT22;37008;52.210;21.112;2023-11-21T13:18:14;-0.30;99.90
50989;DHT22;37008;52.210;21.112;2023-11-21T13:20:41;-0.30;99.90
50989;DHT22;37008;52.210;21.112;2023-11-21T13:23:09;-0.30;99.90
50989;DHT22;37008;52.210;21.112;2023-11-21T13:25:38;-0.30;99.90
50989;DHT22;37008;52.210;21.112;2023-11-21T13:28:06;-0.20;99.90
50989;DHT22;37008;52.210;21.112;2023-11-21T13:30:32;-0.30;99.90
50989;DHT22;37008;52.210;21.112;2023-11-21T13:33:04;-0.30;99.90
50989;DHT22;37008;52.210;21.112;2023-11-21T13:35:41;-0.30;99.90
50989;DHT22;37008;52.210;21.112;2023-11-21T13:38:17;-0.30;99.90
50989;DHT22;37008;52.210;21.112;2023-11-21T13:40:51;-0.30;99.90
50989;DHT22;37008;52.210;21.112;2023-11-21T13:43:20;-0.30;99.90
50989;DHT22;37008;52.210;21.112;2023-11-21T13:45:54;-0.40;99.90
50989;DHT22;37008;52.210;21.112;2023-11-21T13:48:33;-0.40;99.90
50989;DHT22;37008;52.210;21.112;2023-11-21T13:51:14;-0.40;99.90
50989;DHT22;37008;52.210;21.112;2023-11-21T13:53:46;-0.40;99.90
50989;DHT22;37008;52.210;21.112;2023-11-21T13:56:15;-0.40;99.90
50989;DHT22;37008;52.210;21.112;2023-11-21T13:58:53;-0.40;99.90
50989;DHT22;37008;52.210;21.112;2023-11-21T14:01:21;-0.60;99.90
50989;DHT22;37008;52.210;21.112;2023-11-21T14:04:10;-0.50;99.90
50989;DHT22;37008;52.210;21.112;2023-11-21T14:06:57;-0.60;99.90
50989;DHT22;37008;52.210;21.112;2023-11-21T14:09:39;-0.60;99.90
50989;DHT22;37008;52.210;21.112;2023-11-21T14:12:09;-0.60;99.90
50989;DHT22;37008;52.210;21.112;2023-11-21T14:14:46;-0.10;99.90
50989;DHT22;37008;52.210;21.112;2023-11-21T14:17:13;-0.70;99.90
50989;DHT22;37008;52.210;21.112;2023-11-21T14:19:38;-0.40;99.90
50989;DHT22;37008;52.210;21.112;2023-11-21T14:22:11;-0.70;99.90
50989;DHT22;37008;52.210;21.112;2023-11-21T14:24:38;-0.30;99.90
50989;DHT22;37008;52.210;21.112;2023-11-21T14:27:09;-0.80;99.90
50989;DHT22;37008;52.210;21.112;2023-11-21T14:29:35;-0.70;99.90
50989;DHT22;37008;52.210;21.112;2023-11-21T14:32:33;-0.70;99.90
50989;DHT22;37008;52.210;21.112;2023-11-21T14:35:00;-0.70;99.90
50989;DHT22;37008;52.210;21.112;2023-11-21T14:37:26;-0.70;99.90
50989;DHT22;37008;52.210;21.112;2023-11-21T14:39:55;-0.80;99.90
50989;DHT22;37008;52.210;21.112;2023-11-21T14:42:22;-0.80;99.90
50989;DHT22;37008;52.210;21.112;2023-11-21T14:44:51;-0.80;99.90
50989;DHT22;37008;52.210;21.112;2023-11-21T14:47:17;-0.90;99.90
50989;DHT22;37008;52.210;21.112;2023-11-21T14:49:50;-0.90;99.90
50989;DHT22;37008;52.210;21.112;2023-11-21T14:52:19;-0.80;99.90
50989;DHT22;37008;52.210;21.112;2023-11-21T14:55:06;-0.90;99.90
50989;DHT22;37008;52.210;21.112;2023-11-21T14:57:50;-0.90;99.90
50989;DHT22;37008;52.210;21.112;2023-11-21T15:00:20;-0.90;99.90
50989;DHT22;37008;52.210;21.112;2023-11-21T15:03:01;-0.90;99.90
50989;DHT22;37008;52.210;21.112;2023-11-21T15:05:28;-1.00;99.90
50989;DHT22;37008;52.210;21.112;2023-11-21T15:07:54;-1.00;99.90
50989;DHT22;37008;52.210;21.112;2023-11-21T15:10:35;-1.00;99.90
50989;DHT22;37008;52.210;21.112;2023-11-21T15:13:15;-1.00;99.90
50989;DHT22;37008;52.210;21.112;2023-11-21T15:15:42;-1.00;99.90
50989;DHT22;37008;52.210;21.112;2023-11-21T15:18:07;-1.00;99.90
50989;DHT22;37008;52.210;21.112;2023-11-21T15:20:33;-1.00;99.90
50989;DHT22;37008;52.210;21.112;2023-11-21T15:22:59;-1.00;99.90
50989;DHT22;37008;52.210;21.112;2023-11-21T15:25:25;-1.10;99.90
50989;DHT22;37008;52.210;21.112;2023-11-21T15:27:51;-1.10;99.90
50989;DHT22;37008;52.210;21.112;2023-11-21T15:30:17;-1.10;99.90
50989;DHT22;37008;52.210;21.112;2023-11-21T15:32:48;-1.10;99.90
50989;DHT22;37008;52.210;21.112;2023-11-21T15:35:14;-1.10;99.90
50989;DHT22;37008;52.210;21.112;2023-11-21T15:37:40;-1.10;99.90
50989;DHT22;37008;52.210;21.112;2023-11-21T15:40:06;-1.00;99.90
50989;DHT22;37008;52.210;21.112;2023-11-21T15:42:34;-1.00;99.90
50989;DHT22;37008;52.210;21.112;2023-11-21T15:45:02;-1.00;99.90